Time;durP1;ratioP1;P1;durP2;ratioP2;P2;SDS_P1;SDS_P2;PMS_P1;PMS_P2;Temp;Humidity;BMP_temperature;BMP_pressure;BME280_temperature;BME280_humidity;BME280_pressure;Samples;Min_cycle;Max_cycle;Signal;HPM_P1;HPM_P2
2021/12/23 00:01:44;;;;;;;33.43;20.43;;;-3.20;99.90;;;;;;5071752;28;20601;-55
2021/12/23 00:04:12;;;;;;;33.80;21.00;;;-3.20;99.90;;;;;;5071426;28;20213;-54
2021/12/23 00:06:39;;;;;;;34.97;20.53;;;-3.20;99.90;;;;;;5071644;28;20782;-55
2021/12/23 00:09:06;;;;;;;37.00;22.67;;;-3.10;99.90;;;;;;5071845;28;20243;-56
2021/12/23 00:11:34;;;;;;;37.10;22.37;;;-3.10;99.90;;;;;;5071496;28;20641;-56
2021/12/23 00:14:04;;;;;;;34.77;21.40;;;-3.00;99.90;;;;;;5071531;28;20208;-56
2021/12/23 00:16:43;;;;;;;36.10;21.90;;;-3.10;99.90;;;;;;5071386;28;20235;-56
2021/12/23 00:19:20;;;;;;;37.90;22.40;;;-3.10;99.90;;;;;;5071862;28;20211;-56
2021/12/23 00:24:32;;;;;;;36.20;21.20;;;-3.10;99.90;;;;;;5071463;28;20330;-56
2021/12/23 00:27:00;;;;;;;35.23;21.57;;;-3.00;99.90;;;;;;5072148;28;20270;-56
2021/12/23 00:29:28;;;;;;;34.17;20.77;;;-3.10;99.90;;;;;;5075514;28;20205;-56
2021/12/23 00:31:54;;;;;;;35.90;22.30;;;-3.10;99.90;;;;;;5075325;28;20294;-55
2021/12/23 00:34:21;;;;;;;34.97;21.30;;;-3.10;99.90;;;;;;5075232;28;20213;-56
2021/12/23 00:36:48;;;;;;;35.30;21.97;;;-2.90;99.90;;;;;;5075120;28;20228;-56
2021/12/23 00:39:16;;;;;;;38.40;21.63;;;-3.00;99.90;;;;;;5075232;28;20205;-55
2021/12/23 00:41:44;;;;;;;36.30;20.97;;;-3.00;99.90;;;;;;5075047;28;20208;-55
2021/12/23 00:44:11;;;;;;;34.30;20.90;;;-3.10;99.90;;;;;;5075177;28;20215;-56
2021/12/23 00:46:39;;;;;;;37.30;22.00;;;-3.10;99.90;;;;;;5075124;28;20225;-56
2021/12/23 00:49:07;;;;;;;36.10;21.40;;;-3.10;99.90;;;;;;5075156;28;20205;-56
2021/12/23 00:51:33;;;;;;;33.73;20.13;;;-3.10;99.90;;;;;;5074836;28;20221;-56
2021/12/23 00:54:04;;;;;;;36.13;21.50;;;-3.10;99.90;;;;;;5074497;28;20211;-56
2021/12/23 00:56:30;;;;;;;36.23;21.07;;;-3.10;99.90;;;;;;5075026;28;20228;-56
2021/12/23 00:58:57;;;;;;;33.17;20.73;;;-3.10;99.90;;;;;;5075024;28;20209;-56
2021/12/23 01:01:24;;;;;;;36.93;22.27;;;-3.20;99.90;;;;;;5074971;28;20204;-56
2021/12/23 01:03:52;;;;;;;34.97;20.67;;;-3.10;99.90;;;;;;5074629;28;20267;-56
2021/12/23 01:06:19;;;;;;;32.40;19.67;;;-3.10;99.90;;;;;;5074585;28;20229;-55
2021/12/23 01:08:45;;;;;;;33.40;19.87;;;-3.20;99.90;;;;;;5074647;28;20262;-56
2021/12/23 01:11:12;;;;;;;35.70;20.80;;;-3.30;99.90;;;;;;5074989;28;20225;-56
2021/12/23 01:13:46;;;;;;;34.50;21.60;;;-3.20;99.90;;;;;;5074625;28;20205;-56
2021/12/23 01:16:25;;;;;;;37.97;21.90;;;-3.10;99.90;;;;;;5074602;28;20601;-56
2021/12/23 01:18:55;;;;;;;34.03;20.23;;;-3.00;99.90;;;;;;5075150;28;20310;-55
2021/12/23 01:21:22;;;;;;;33.33;20.93;;;-2.90;99.90;;;;;;5074852;28;20262;-55
2021/12/23 01:23:51;;;;;;;34.13;20.97;;;-2.70;99.90;;;;;;5074552;28;20201;-55
2021/12/23 01:26:21;;;;;;;32.73;20.00;;;-2.70;99.90;;;;;;5074507;28;20610;-55
2021/12/23 01:28:51;;;;;;;32.87;20.63;;;-2.60;99.90;;;;;;5074389;28;20211;-55
2021/12/23 01:31:18;;;;;;;35.30;20.03;;;-2.60;99.90;;;;;;5074287;28;20220;-54
2021/12/23 01:33:46;;;;;;;32.23;19.30;;;-2.70;99.90;;;;;;5073887;28;20692;-55
2021/12/23 01:36:14;;;;;;;31.67;19.17;;;-2.70;99.90;;;;;;5074229;28;20723;-55
2021/12/23 01:38:41;;;;;;;31.50;20.00;;;-2.80;99.90;;;;;;5073942;28;20209;-54
2021/12/23 01:41:08;;;;;;;32.37;19.67;;;-2.70;99.90;;;;;;5074244;28;20687;-55
2021/12/23 01:43:35;;;;;;;33.87;19.53;;;-2.60;99.90;;;;;;5073746;28;20234;-55
2021/12/23 01:46:02;;;;;;;31.53;18.90;;;-2.70;99.90;;;;;;5073801;28;20446;-55
2021/12/23 01:48:29;;;;;;;32.57;19.13;;;-2.70;99.90;;;;;;5074137;28;20212;-55
2021/12/23 01:50:56;;;;;;;34.00;19.03;;;-2.70;99.90;;;;;;5074114;28;20699;-55
2021/12/23 01:53:24;;;;;;;30.43;19.40;;;-2.60;99.90;;;;;;5073622;28;20639;-55
2021/12/23 01:55:51;;;;;;;31.63;19.20;;;-2.50;99.90;;;;;;5073689;28;20213;-55
2021/12/23 01:58:18;;;;;;;30.47;18.83;;;-2.30;99.90;;;;;;5073757;28;20232;-55
2021/12/23 02:00:47;;;;;;;34.57;20.80;;;-2.20;99.90;;;;;;5073939;28;20211;-55
2021/12/23 02:03:14;;;;;;;34.57;20.10;;;-2.10;99.90;;;;;;5073395;28;20626;-55
2021/12/23 02:05:41;;;;;;;35.87;20.00;;;-2.00;99.90;;;;;;5073605;28;20213;-55
2021/12/23 02:08:08;;;;;;;32.10;20.20;;;-1.90;99.90;;;;;;5073303;28;20237;-55
2021/12/23 02:10:39;;;;;;;32.00;19.47;;;-1.80;99.90;;;;;;5073569;28;20212;-54
2021/12/23 02:13:05;;;;;;;31.40;20.00;;;-1.80;99.90;;;;;;5073103;28;20270;-55
2021/12/23 02:15:32;;;;;;;30.57;20.07;;;-1.80;99.90;;;;;;5073412;28;20209;-55
2021/12/23 02:17:59;;;;;;;32.93;19.07;;;-1.80;99.90;;;;;;5073302;28;20745;-55
2021/12/23 02:20:30;;;;;;;32.97;19.80;;;-1.70;99.90;;;;;;5073355;28;20201;-55
2021/12/23 02:22:57;;;;;;;28.97;17.97;;;-1.80;99.90;;;;;;5073039;28;20208;-54
2021/12/23 02:25:24;;;;;;;30.63;18.90;;;-1.80;99.90;;;;;;5073170;28;20204;-55
2021/12/23 02:27:52;;;;;;;34.20;20.13;;;-1.70;99.90;;;;;;5072860;28;20248;-55
2021/12/23 02:30:22;;;;;;;32.50;20.50;;;-1.60;99.90;;;;;;5073513;28;20205;-55
2021/12/23 02:32:50;;;;;;;28.57;17.20;;;-1.60;99.90;;;;;;5073123;28;20332;-55
2021/12/23 02:35:18;;;;;;;28.10;18.00;;;-1.70;99.90;;;;;;5073093;28;20632;-55
2021/12/23 02:37:47;;;;;;;30.30;19.13;;;-1.80;99.90;;;;;;5072727;28;20232;-55
2021/12/23 02:40:25;;;;;;;30.07;18.40;;;-1.90;99.90;;;;;;5072766;28;20236;-55
2021/12/23 02:42:52;;;;;;;29.07;18.33;;;-1.90;99.90;;;;;;5072815;28;20270;-55
2021/12/23 02:45:19;;;;;;;33.93;19.87;;;-1.80;99.90;;;;;;5072918;28;20205;-55
2021/12/23 02:47:46;;;;;;;31.10;19.10;;;-1.80;99.90;;;;;;5072823;28;20251;-55
2021/12/23 02:50:13;;;;;;;30.23;18.20;;;-1.80;99.90;;;;;;5072054;28;20213;-55
2021/12/23 02:52:39;;;;;;;29.33;18.43;;;-1.80;99.90;;;;;;5072503;28;20221;-57
2021/12/23 02:55:08;;;;;;;32.60;20.30;;;-1.90;99.90;;;;;;5072505;28;20224;-57
2021/12/23 02:57:35;;;;;;;30.93;18.17;;;-2.00;99.90;;;;;;5072672;28;20236;-56
2021/12/23 03:00:04;;;;;;;31.43;18.97;;;-2.00;99.90;;;;;;5072759;28;20248;-56
2021/12/23 03:02:31;;;;;;;30.63;18.50;;;-2.10;99.90;;;;;;5072645;28;20201;-56
2021/12/23 03:04:58;;;;;;;31.70;18.50;;;-2.10;99.90;;;;;;5072116;28;20205;-56
2021/12/23 03:07:24;;;;;;;29.60;19.10;;;-2.20;99.90;;;;;;5072291;28;20236;-56
2021/12/23 03:09:51;;;;;;;31.47;18.27;;;-2.30;99.90;;;;;;5072669;28;20211;-56
2021/12/23 03:12:19;;;;;;;29.43;17.63;;;-2.30;99.90;;;;;;5072470;28;20643;-56
2021/12/23 03:14:46;;;;;;;29.23;18.27;;;-2.30;99.90;;;;;;5072116;28;20262;-56
2021/12/23 03:17:12;;;;;;;30.93;17.77;;;-2.30;99.90;;;;;;5072238;28;20228;-56
2021/12/23 03:19:39;;;;;;;30.57;18.43;;;-2.40;99.90;;;;;;5072466;28;20216;-56
2021/12/23 03:22:06;;;;;;;27.40;16.83;;;-2.40;99.90;;;;;;5072095;28;20204;-56
2021/12/23 03:24:34;;;;;;;29.17;17.53;;;-2.40;99.90;;;;;;5071941;28;20704;-56
2021/12/23 03:27:01;;;;;;;28.97;17.70;;;-2.30;99.90;;;;;;5072102;28;20276;-56
2021/12/23 03:29:29;;;;;;;29.43;18.03;;;-2.40;99.90;;;;;;5072208;28;20287;-56
2021/12/23 03:31:56;;;;;;;32.23;20.03;;;-2.40;99.90;;;;;;5072046;28;20221;-57
2021/12/23 03:34:22;;;;;;;31.93;18.83;;;-2.40;99.90;;;;;;5072303;28;20213;-56
2021/12/23 03:36:49;;;;;;;31.90;18.70;;;-2.40;99.90;;;;;;5072103;28;20234;-56
2021/12/23 03:39:16;;;;;;;32.47;19.83;;;-2.40;99.90;;;;;;5072262;28;20569;-56
2021/12/23 03:41:43;;;;;;;31.23;19.03;;;-2.40;99.90;;;;;;5072019;28;20637;-57
2021/12/23 03:44:09;;;;;;;28.83;18.30;;;-2.30;99.90;;;;;;5071652;28;20209;-56
2021/12/23 03:46:38;;;;;;;30.73;18.53;;;-2.30;99.90;;;;;;5071817;28;20225;-56
2021/12/23 03:49:06;;;;;;;31.37;18.53;;;-2.30;99.90;;;;;;5071684;28;20200;-56
2021/12/23 03:51:33;;;;;;;32.07;19.57;;;-2.30;99.90;;;;;;5072070;28;22112;-56
2021/12/23 03:54:00;;;;;;;31.20;18.37;;;-2.20;99.90;;;;;;5071797;28;20209;-56
2021/12/23 03:56:27;;;;;;;32.03;18.47;;;-2.10;99.90;;;;;;5071783;28;20228;-56
2021/12/23 03:58:54;;;;;;;27.53;18.43;;;-2.20;99.90;;;;;;5071798;28;20265;-56
2021/12/23 04:01:22;;;;;;;29.07;18.37;;;-2.20;99.90;;;;;;5071705;28;20208;-56
2021/12/23 04:03:50;;;;;;;31.37;19.17;;;-2.10;99.90;;;;;;5075576;28;20204;-56
2021/12/23 04:06:17;;;;;;;31.17;19.20;;;-2.00;99.90;;;;;;5075672;28;20204;-56
2021/12/23 04:08:44;;;;;;;29.80;18.43;;;-1.90;99.90;;;;;;5075937;28;20262;-56
2021/12/23 04:11:11;;;;;;;30.43;18.50;;;-1.70;99.90;;;;;;5075876;28;20278;-54
2021/12/23 04:13:38;;;;;;;32.60;19.70;;;-1.50;99.90;;;;;;5075373;28;20612;-54
2021/12/23 04:16:05;;;;;;;31.43;19.20;;;-1.40;99.90;;;;;;5075576;28;20204;-54
2021/12/23 04:18:32;;;;;;;34.33;19.60;;;-1.30;99.90;;;;;;5075715;28;20205;-53
2021/12/23 04:21:00;;;;;;;30.77;19.73;;;-1.30;99.90;;;;;;5075457;28;20699;-54
2021/12/23 04:23:30;;;;;;;33.47;18.70;;;-1.30;99.90;;;;;;5075295;28;20201;-54
2021/12/23 04:25:57;;;;;;;29.90;18.30;;;-1.40;99.90;;;;;;5075412;28;20212;-54
2021/12/23 04:28:25;;;;;;;34.60;19.03;;;-1.40;99.90;;;;;;5075377;28;20235;-54
2021/12/23 04:30:52;;;;;;;29.50;18.20;;;-1.40;99.90;;;;;;5075332;28;20220;-54
2021/12/23 04:33:19;;;;;;;26.90;17.50;;;-1.40;99.90;;;;;;5075065;28;20270;-54
2021/12/23 04:35:46;;;;;;;30.47;18.67;;;-1.40;99.90;;;;;;5075190;28;20869;-54
2021/12/23 04:38:14;;;;;;;33.63;19.27;;;-1.50;99.90;;;;;;5075239;28;20315;-56
2021/12/23 04:40:41;;;;;;;31.43;19.13;;;-1.60;99.90;;;;;;5075155;28;20205;-56
2021/12/23 04:43:08;;;;;;;31.57;19.40;;;-1.60;99.90;;;;;;5075600;28;20204;-56
2021/12/23 04:45:35;;;;;;;34.97;19.27;;;-1.50;99.90;;;;;;5075399;28;20623;-54
2021/12/23 04:48:02;;;;;;;31.83;18.87;;;-1.40;99.90;;;;;;5075119;28;20227;-54
2021/12/23 04:50:29;;;;;;;33.27;20.00;;;-1.20;99.90;;;;;;5075000;28;20211;-55
2021/12/23 04:52:56;;;;;;;30.90;19.43;;;-1.10;99.90;;;;;;5074895;28;20700;-54
2021/12/23 04:55:24;;;;;;;33.77;19.83;;;-1.10;99.90;;;;;;5074799;28;20349;-53
2021/12/23 04:57:51;;;;;;;31.40;19.20;;;-1.10;99.90;;;;;;5074624;28;20228;-54
2021/12/23 05:00:20;;;;;;;29.83;18.40;;;-1.10;99.90;;;;;;5075292;28;20205;-54
2021/12/23 05:02:47;;;;;;;30.77;18.77;;;-1.00;99.90;;;;;;5074605;28;20653;-54
2021/12/23 05:05:15;;;;;;;34.17;20.57;;;-1.20;99.90;;;;;;5074518;28;20204;-54
2021/12/23 05:07:42;;;;;;;29.40;18.87;;;-1.20;99.90;;;;;;5085935;22;20233;-61
2021/12/23 05:10:11;;;;;;;31.03;18.83;;;-1.20;99.90;;;;;;5054379;28;20209;-61
2021/12/23 05:12:43;;;;;;;33.67;19.20;;;-1.20;99.90;;;;;;5054114;28;20264;-60
2021/12/23 05:15:10;;;;;;;29.93;18.67;;;-1.30;99.90;;;;;;5054611;28;20249;-60
2021/12/23 05:17:37;;;;;;;33.73;19.40;;;-1.40;99.90;;;;;;5054491;28;20324;-60
2021/12/23 05:20:05;;;;;;;32.97;19.90;;;-1.60;99.90;;;;;;5054526;28;20259;-60
2021/12/23 05:22:32;;;;;;;32.20;19.20;;;-1.60;99.90;;;;;;5054637;28;20259;-61
2021/12/23 05:24:59;;;;;;;33.33;19.13;;;-1.60;99.90;;;;;;5053884;28;20267;-60
2021/12/23 05:27:26;;;;;;;31.23;18.47;;;-1.70;99.90;;;;;;5054366;28;20759;-62
2021/12/23 05:29:54;;;;;;;33.13;19.40;;;-1.80;99.90;;;;;;5054322;28;20210;-61
2021/12/23 05:32:20;;;;;;;33.00;19.83;;;-1.90;99.90;;;;;;5054229;28;20229;-60
2021/12/23 05:34:47;;;;;;;34.70;19.70;;;-2.10;99.90;;;;;;5054029;28;20255;-60
2021/12/23 05:37:14;;;;;;;37.20;20.83;;;-2.00;99.90;;;;;;5053936;28;20221;-60
2021/12/23 05:39:40;;;;;;;30.00;18.47;;;-2.10;99.90;;;;;;5054112;28;20621;-60
2021/12/23 05:42:07;;;;;;;36.23;19.90;;;-2.10;99.90;;;;;;5054273;28;20205;-61
2021/12/23 05:44:34;;;;;;;34.60;20.10;;;-2.20;99.90;;;;;;5053833;28;20206;-60
2021/12/23 05:47:03;;;;;;;35.00;19.63;;;-2.30;99.90;;;;;;5053992;28;20254;-60
2021/12/23 05:49:29;;;;;;;35.57;19.63;;;-2.40;99.90;;;;;;5054027;28;20202;-60
2021/12/23 05:51:56;;;;;;;33.53;19.30;;;-2.30;99.90;;;;;;5053660;28;20235;-59
2021/12/23 05:54:23;;;;;;;32.03;19.10;;;-2.30;99.90;;;;;;5053680;28;20209;-60
2021/12/23 05:56:50;;;;;;;31.10;18.40;;;-2.30;99.90;;;;;;5053668;28;20312;-63
2021/12/23 05:59:17;;;;;;;33.70;18.50;;;-2.40;99.90;;;;;;5053718;28;20202;-60
2021/12/23 06:01:43;;;;;;;32.07;19.33;;;-2.50;99.90;;;;;;5053664;28;20202;-60
2021/12/23 06:04:11;;;;;;;34.80;19.33;;;-2.30;99.90;;;;;;5053359;28;20209;-60
2021/12/23 06:06:38;;;;;;;32.23;18.73;;;-2.30;99.90;;;;;;5053543;28;20213;-60
2021/12/23 06:09:05;;;;;;;35.43;20.37;;;-2.30;99.90;;;;;;5053789;28;20213;-60
2021/12/23 06:11:31;;;;;;;33.37;19.13;;;-2.30;99.90;;;;;;5053642;28;20206;-60
2021/12/23 06:13:58;;;;;;;30.57;18.00;;;-2.30;99.90;;;;;;5053220;28;20279;-60
2021/12/23 06:16:25;;;;;;;33.13;18.80;;;-2.20;99.90;;;;;;5053527;28;20205;-61
2021/12/23 06:18:51;;;;;;;35.63;20.07;;;-2.20;99.90;;;;;;5053610;28;20217;-60
2021/12/23 06:21:20;;;;;;;32.10;19.10;;;-2.10;99.90;;;;;;5053733;28;20205;-61
2021/12/23 06:23:47;;;;;;;36.03;19.93;;;-2.00;99.90;;;;;;5053215;28;20237;-61
2021/12/23 06:26:14;;;;;;;31.67;18.37;;;-1.90;99.90;;;;;;5052980;28;20206;-60
2021/12/23 06:28:40;;;;;;;32.23;18.80;;;-1.90;99.90;;;;;;5054168;28;20637;-60
2021/12/23 06:31:08;;;;;;;28.97;17.70;;;-2.00;99.90;;;;;;5053985;28;20209;-59
2021/12/23 06:33:34;;;;;;;30.27;18.30;;;-2.20;99.90;;;;;;5055699;28;20321;-59
2021/12/23 06:36:01;;;;;;;29.50;17.43;;;-2.30;99.90;;;;;;5060057;28;20235;-60
2021/12/23 06:38:30;;;;;;;27.57;17.03;;;-2.30;99.90;;;;;;5054520;28;20230;-60
2021/12/23 06:40:57;;;;;;;33.00;18.33;;;-2.30;99.90;;;;;;5054372;28;20213;-58
2021/12/23 06:43:23;;;;;;;29.70;17.17;;;-2.20;99.90;;;;;;5056008;28;20206;-59
2021/12/23 06:45:50;;;;;;;29.37;16.73;;;-2.20;99.90;;;;;;5052925;28;20608;-58
2021/12/23 06:48:17;;;;;;;31.17;17.10;;;-2.20;99.90;;;;;;5052578;28;20230;-58
2021/12/23 06:50:45;;;;;;;29.50;17.20;;;-2.20;99.90;;;;;;5052774;28;20221;-59
2021/12/23 06:53:13;;;;;;;34.23;18.77;;;-2.20;99.90;;;;;;5052617;28;20252;-59
2021/12/23 06:55:42;;;;;;;32.83;18.60;;;-2.10;99.90;;;;;;5052507;28;20205;-59
2021/12/23 06:58:09;;;;;;;35.50;20.93;;;-1.90;99.90;;;;;;5052387;28;20244;-59
2021/12/23 07:00:35;;;;;;;33.90;20.00;;;-1.70;99.90;;;;;;5052372;28;20212;-58
2021/12/23 07:03:03;;;;;;;31.00;19.33;;;-1.60;99.90;;;;;;5052500;28;20230;-58
2021/12/23 07:05:30;;;;;;;30.23;17.93;;;-1.60;99.90;;;;;;5052409;28;20206;-59
2021/12/23 07:08:03;;;;;;;32.17;18.23;;;-1.60;99.90;;;;;;5052140;28;20233;-59
2021/12/23 07:10:31;;;;;;;33.10;19.33;;;-1.60;99.90;;;;;;5052570;28;20290;-58
2021/12/23 07:13:00;;;;;;;29.53;17.97;;;-1.70;99.90;;;;;;5052288;28;20279;-58
2021/12/23 07:15:28;;;;;;;36.00;19.37;;;-1.70;99.90;;;;;;5051975;28;20297;-58
2021/12/23 07:17:57;;;;;;;30.67;17.53;;;-1.80;99.90;;;;;;5052083;28;20716;-59
2021/12/23 07:20:24;;;;;;;32.10;18.07;;;-1.80;99.90;;;;;;5052357;28;20228;-58
2021/12/23 07:22:51;;;;;;;30.33;18.50;;;-1.80;99.90;;;;;;5052262;28;20210;-58
2021/12/23 07:25:18;;;;;;;27.23;17.23;;;-1.70;99.90;;;;;;5051942;28;20245;-59
2021/12/23 07:27:45;;;;;;;29.57;17.10;;;-1.60;99.90;;;;;;5052083;28;20709;-59
2021/12/23 07:30:19;;;;;;;29.00;17.47;;;-1.60;99.90;;;;;;5052233;28;20202;-58
2021/12/23 07:32:46;;;;;;;30.93;19.40;;;-1.40;99.90;;;;;;5052170;28;20311;-58
2021/12/23 07:35:13;;;;;;;29.47;17.70;;;-1.30;99.90;;;;;;5051898;28;20259;-59
2021/12/23 07:37:41;;;;;;;28.90;17.77;;;-1.10;99.90;;;;;;5051524;28;20229;-58
2021/12/23 07:40:09;;;;;;;30.77;17.73;;;-1.00;99.90;;;;;;5051953;28;20209;-58
2021/12/23 07:42:37;;;;;;;31.13;18.23;;;-0.90;99.90;;;;;;5052090;28;20288;-59
2021/12/23 07:45:05;;;;;;;32.13;17.93;;;-0.90;99.90;;;;;;5051683;28;20216;-59
2021/12/23 07:47:33;;;;;;;28.17;17.93;;;-0.90;99.90;;;;;;5051833;28;20229;-58
2021/12/23 07:50:00;;;;;;;32.77;19.13;;;-0.90;99.90;;;;;;5051895;28;20206;-58
2021/12/23 07:52:26;;;;;;;30.20;19.20;;;-0.90;99.90;;;;;;5051997;28;20209;-59
2021/12/23 07:54:53;;;;;;;30.83;18.10;;;-0.80;99.90;;;;;;5051374;28;20228;-59
2021/12/23 07:57:20;;;;;;;32.07;18.97;;;-0.80;99.90;;;;;;5051773;28;20320;-59
2021/12/23 07:59:46;;;;;;;30.43;17.60;;;-0.80;99.90;;;;;;5051818;28;20209;-59
2021/12/23 08:02:13;;;;;;;29.80;18.67;;;-0.80;99.90;;;;;;5051566;28;20232;-59
2021/12/23 08:04:41;;;;;;;31.23;18.80;;;-0.80;99.90;;;;;;5051972;28;20255;-59
2021/12/23 08:07:08;;;;;;;31.20;18.63;;;-0.70;99.90;;;;;;5051498;28;20233;-60
2021/12/23 08:09:34;;;;;;;27.83;17.17;;;-0.70;99.90;;;;;;5051871;28;20214;-58
2021/12/23 08:12:05;;;;;;;30.27;18.43;;;-0.60;99.90;;;;;;5052416;28;20637;-59
2021/12/23 08:14:32;;;;;;;30.30;17.83;;;-0.50;99.90;;;;;;5051848;28;20249;-59
2021/12/23 08:16:59;;;;;;;32.27;18.73;;;-0.50;99.90;;;;;;5052230;28;20272;-59
2021/12/23 08:19:25;;;;;;;35.13;19.70;;;-0.60;99.90;;;;;;5051809;28;20236;-60
2021/12/23 08:21:53;;;;;;;30.77;17.60;;;-0.50;99.90;;;;;;5051517;28;20209;-59
2021/12/23 08:24:20;;;;;;;32.13;19.67;;;-0.40;99.90;;;;;;5051254;28;20293;-59
2021/12/23 08:26:51;;;;;;;29.80;17.93;;;-0.20;99.90;;;;;;5051595;28;20222;-59
2021/12/23 08:29:19;;;;;;;28.37;17.10;;;0.00;99.90;;;;;;5051537;28;20233;-59
2021/12/23 08:31:46;;;;;;;26.97;16.73;;;0.10;99.90;;;;;;5051313;28;20241;-58
2021/12/23 08:34:14;;;;;;;26.93;16.63;;;0.20;99.90;;;;;;5051412;28;20217;-59
2021/12/23 08:36:40;;;;;;;30.47;16.80;;;0.30;99.90;;;;;;5051517;28;20328;-59
2021/12/23 08:39:08;;;;;;;30.20;18.40;;;0.50;99.90;;;;;;5051484;28;20271;-59
2021/12/23 08:41:35;;;;;;;28.63;17.43;;;0.60;99.90;;;;;;5051218;28;20557;-58
2021/12/23 08:44:02;;;;;;;28.57;17.57;;;0.80;99.90;;;;;;5051050;28;20205;-59
2021/12/23 08:46:28;;;;;;;28.47;16.47;;;1.00;99.90;;;;;;5051166;28;20206;-59
2021/12/23 08:48:55;;;;;;;31.03;17.90;;;1.10;99.90;;;;;;5053401;28;20206;-58
2021/12/23 08:51:22;;;;;;;26.90;16.47;;;1.10;99.90;;;;;;5054860;28;20209;-60
2021/12/23 08:53:49;;;;;;;24.83;16.47;;;1.30;99.90;;;;;;5051723;28;20316;-62
2021/12/23 08:56:17;;;;;;;26.53;16.87;;;1.40;99.90;;;;;;5054522;28;20205;-60
2021/12/23 08:58:44;;;;;;;24.90;16.53;;;1.40;99.90;;;;;;5054955;28;20237;-64
2021/12/23 09:01:11;;;;;;;22.13;15.37;;;1.40;99.90;;;;;;5054486;28;20210;-65
2021/12/23 09:03:38;;;;;;;26.70;16.63;;;1.40;99.90;;;;;;5054140;28;20665;-63
2021/12/23 09:06:06;;;;;;;32.73;16.63;;;1.30;99.90;;;;;;5054510;28;20268;-61
2021/12/23 09:08:33;;;;;;;27.57;17.30;;;1.40;99.90;;;;;;5054359;28;20233;-60
2021/12/23 09:11:00;;;;;;;29.47;19.10;;;1.70;99.90;;;;;;5054333;28;20208;-64
2021/12/23 09:13:29;;;;;;;28.23;17.73;;;1.90;99.90;;;;;;5054016;28;20221;-62
2021/12/23 09:15:56;;;;;;;30.00;18.43;;;2.20;99.90;;;;;;5054195;28;20205;-62
2021/12/23 09:18:24;;;;;;;26.10;14.90;;;2.40;99.90;;;;;;5054171;28;20236;-61
2021/12/23 09:20:52;;;;;;;24.93;16.03;;;2.60;99.90;;;;;;5054384;28;20212;-62
2021/12/23 09:23:19;;;;;;;23.37;15.87;;;2.70;99.90;;;;;;5054156;28;20213;-63
2021/12/23 09:25:47;;;;;;;26.20;15.03;;;2.70;99.90;;;;;;5053873;28;20205;-64
2021/12/23 09:28:30;;;;;;;24.47;14.97;;;2.70;99.90;;;;;;5053913;28;20674;-63
2021/12/23 09:33:45;;;;;;;27.37;15.60;;;2.80;99.90;;;;;;5053669;28;20220;-61
2021/12/23 09:36:12;;;;;;;23.10;14.83;;;2.90;99.90;;;;;;5054038;28;20239;-60
2021/12/23 09:38:40;;;;;;;26.03;15.87;;;2.90;99.90;;;;;;5054156;28;20221;-60
2021/12/23 09:41:09;;;;;;;39.37;24.27;;;3.00;99.90;;;;;;5053798;28;20240;-62
2021/12/23 09:43:39;;;;;;;30.13;18.40;;;3.20;99.90;;;;;;5053676;28;20202;-59
2021/12/23 09:46:08;;;;;;;22.97;14.70;;;3.40;99.90;;;;;;5053978;28;20240;-60
2021/12/23 09:48:35;;;;;;;24.23;15.00;;;3.50;99.90;;;;;;5053831;28;20256;-60
2021/12/23 09:51:05;;;;;;;22.03;14.23;;;3.60;99.90;;;;;;5053681;28;20245;-61
2021/12/23 09:53:34;;;;;;;33.20;20.60;;;3.60;99.90;;;;;;5053794;28;20218;-62
2021/12/23 09:56:02;;;;;;;26.37;16.20;;;3.60;99.90;;;;;;5053731;28;20630;-62
2021/12/23 09:58:30;;;;;;;23.73;16.63;;;3.70;99.90;;;;;;5053552;28;20328;-62
2021/12/23 10:00:56;;;;;;;22.03;15.33;;;3.80;99.90;;;;;;5053720;28;20591;-62
2021/12/23 10:03:26;;;;;;;22.47;15.17;;;4.00;99.90;;;;;;5053150;28;20283;-64
2021/12/23 10:05:55;;;;;;;20.57;14.47;;;4.10;99.90;;;;;;5053014;28;20205;-62
2021/12/23 10:08:22;;;;;;;24.50;14.70;;;4.20;99.90;;;;;;5053163;28;20229;-65
2021/12/23 10:10:53;;;;;;;19.03;13.57;;;4.30;99.90;;;;;;5053585;28;20205;-61
2021/12/23 10:28:47;;;;;;;21.57;14.73;;;4.90;99.90;;;;;;5052917;28;20735;-62
2021/12/23 10:30:38;;;;;;;21.13;14.20;;;5.00;99.90;;;;;;5053130;28;20233;-63
2021/12/23 10:38:38;;;;;;;23.07;15.97;;;5.60;99.90;;;;;;5052886;28;20246;-58
2021/12/23 10:41:09;;;;;;;26.03;16.07;;;5.70;99.90;;;;;;5052666;28;20624;-59
2021/12/23 10:43:38;;;;;;;31.63;19.77;;;5.90;99.90;;;;;;5053250;28;20216;-59
2021/12/23 10:46:08;;;;;;;37.67;23.07;;;6.00;99.90;;;;;;5053076;28;20214;-60
2021/12/23 10:48:46;;;;;;;32.20;19.83;;;6.00;99.90;;;;;;5052487;28;20232;-58
2021/12/23 10:51:17;;;;;;;24.17;16.60;;;5.90;99.90;;;;;;5052602;28;20601;-58
2021/12/23 10:53:52;;;;;;;22.23;15.33;;;5.90;99.90;;;;;;5052203;28;20640;-59
2021/12/23 10:59:12;;;;;;;21.20;14.73;;;6.00;99.90;;;;;;5053239;28;20287;-64
2021/12/23 11:02:05;;;;;;;19.67;14.33;;;5.90;99.90;;;;;;5052765;28;20210;-62
2021/12/23 11:04:37;;;;;;;24.47;15.90;;;6.00;99.90;;;;;;5051929;28;20206;-64
2021/12/23 11:07:16;;;;;;;28.03;17.13;;;6.10;99.90;;;;;;5080505;22;20373;-56
2021/12/23 11:10:14;;;;;;;23.60;14.53;;;6.10;99.90;;;;;;5092319;28;20216;-56
2021/12/23 11:35:44;;;;;;;26.07;16.87;;;6.80;99.90;;;;;;5050279;28;20284;-56
2021/12/23 11:38:12;;;;;;;25.77;17.03;;;6.80;99.90;;;;;;5092269;28;20230;-56
2021/12/23 11:40:56;;;;;;;22.30;16.03;;;6.70;99.90;;;;;;5092193;28;20204;-56
2021/12/23 11:43:31;;;;;;;22.50;16.27;;;6.70;99.90;;;;;;5092182;28;20208;-56
2021/12/23 11:46:00;;;;;;;25.10;16.53;;;6.80;99.90;;;;;;5091671;28;20211;-56
2021/12/23 11:48:27;;;;;;;24.87;16.83;;;6.90;99.90;;;;;;5092164;28;20224;-56
2021/12/23 11:50:56;;;;;;;26.40;16.80;;;7.20;99.90;;;;;;5092279;28;20204;-56
2021/12/23 11:53:24;;;;;;;24.17;15.83;;;7.40;99.90;;;;;;5092039;28;20206;-56
2021/12/23 11:55:53;;;;;;;23.47;15.70;;;7.20;99.90;;;;;;5091790;28;20262;-56
2021/12/23 11:58:23;;;;;;;27.47;16.50;;;6.80;99.90;;;;;;5091914;28;20281;-56
2021/12/23 12:01:02;;;;;;;22.90;15.77;;;6.90;99.90;;;;;;5091578;28;20215;-56
2021/12/23 12:03:28;;;;;;;24.57;15.80;;;7.30;99.90;;;;;;5091845;28;20200;-56
2021/12/23 12:06:13;;;;;;;29.57;19.20;;;7.60;99.90;;;;;;5091876;28;20203;-56
2021/12/23 12:08:40;;;;;;;25.60;18.37;;;7.80;99.90;;;;;;5091796;28;20232;-56
2021/12/23 12:11:17;;;;;;;33.13;23.83;;;8.00;99.90;;;;;;5091865;28;20208;-56
2021/12/23 12:13:44;;;;;;;20.77;15.30;;;8.20;99.90;;;;;;5092304;28;20235;-56
2021/12/23 12:16:29;;;;;;;19.93;14.33;;;8.20;99.90;;;;;;5091851;28;20204;-56
2021/12/23 12:18:56;;;;;;;19.53;13.87;;;8.40;99.90;;;;;;5092145;28;20231;-56
2021/12/23 12:21:25;;;;;;;14.03;9.83;;;8.60;99.90;;;;;;5091920;28;20299;-56
2021/12/23 12:24:09;;;;;;;16.97;12.40;;;8.70;99.90;;;;;;5093616;28;20204;-56
2021/12/23 12:26:51;;;;;;;14.07;10.40;;;8.90;99.90;;;;;;5095742;28;20250;-56
2021/12/23 12:29:21;;;;;;;22.60;14.30;;;8.90;99.90;;;;;;5095744;28;20214;-57
2021/12/23 12:31:48;;;;;;;14.73;10.27;;;9.00;99.90;;;;;;5095505;28;20632;-57
2021/12/23 12:34:14;;;;;;;13.70;8.50;;;9.20;99.90;;;;;;5095005;28;20313;-56
2021/12/23 12:36:44;;;;;;;10.03;7.07;;;9.30;99.90;;;;;;5095429;28;20211;-56
2021/12/23 12:39:21;;;;;;;10.27;6.10;;;9.50;99.90;;;;;;5095524;28;20277;-56
2021/12/23 12:41:49;;;;;;;10.77;6.90;;;9.60;99.90;;;;;;5095359;28;20200;-57
2021/12/23 12:44:22;;;;;;;9.77;6.80;;;9.80;99.90;;;;;;5094875;28;20197;-57
2021/12/23 12:47:12;;;;;;;8.40;6.20;;;9.80;99.90;;;;;;5095234;28;20548;-57
2021/12/23 12:49:42;;;;;;;8.30;6.17;;;9.90;99.90;;;;;;5095140;28;20209;-57
2021/12/23 12:52:32;;;;;;;9.30;6.23;;;9.80;99.90;;;;;;5095343;28;20223;-56
2021/12/23 12:55:02;;;;;;;8.97;6.13;;;9.80;99.90;;;;;;5094839;28;20693;-56
2021/12/23 12:57:34;;;;;;;8.80;6.67;;;9.80;99.90;;;;;;5095516;28;20224;-56
2021/12/23 13:00:28;;;;;;;12.53;8.90;;;9.70;99.90;;;;;;5095422;28;20299;-56
2021/12/23 13:02:57;;;;;;;10.60;7.27;;;9.60;99.90;;;;;;5095318;28;20212;-61
2021/12/23 13:05:34;;;;;;;10.10;6.90;;;9.50;99.90;;;;;;5094785;28;20207;-58
2021/12/23 13:08:07;;;;;;;8.60;6.33;;;9.50;99.90;;;;;;5095492;28;20239;-57
2021/12/23 13:10:35;;;;;;;8.23;6.40;;;9.60;99.90;;;;;;5095524;28;20204;-57
2021/12/23 13:13:06;;;;;;;11.73;6.30;;;9.60;99.90;;;;;;5091324;28;20211;-57
2021/12/23 13:15:35;;;;;;;9.03;6.80;;;9.60;99.90;;;;;;5093459;28;20216;-59
2021/12/23 13:18:05;;;;;;;8.77;6.50;;;9.70;99.90;;;;;;5094996;28;20224;-59
2021/12/23 13:20:47;;;;;;;9.17;6.60;;;9.80;99.90;;;;;;5094261;28;20693;-59
2021/12/23 13:23:21;;;;;;;9.43;5.80;;;9.80;99.90;;;;;;5094760;28;20208;-59
2021/12/23 13:25:51;;;;;;;9.53;6.50;;;9.80;99.90;;;;;;5094426;28;20659;-60
2021/12/23 13:28:30;;;;;;;9.57;5.90;;;9.80;99.90;;;;;;5094399;28;20247;-61
2021/12/23 13:30:57;;;;;;;10.60;6.90;;;9.90;99.90;;;;;;5094816;28;20897;-61